Time;durP1;ratioP1;P1;durP2;ratioP2;P2;SDS_P1;SDS_P2;PMS_P1;PMS_P2;Temp;Humidity;BMP_temperature;BMP_pressure;BME280_temperature;BME280_humidity;BME280_pressure;Samples;Min_cycle;Max_cycle;Signal;HPM_P1;HPM_P2
2023/09/19 00:00:20;;;;;;;8.10;2.40;;;;;;;18.62;71.71;100220.50;15694856;28;20413;-45
2023/09/19 00:07:54;;;;;;;6.65;2.35;;;;;;;18.68;71.20;100213.13;15680105;28;20045;-45
2023/09/19 00:15:29;;;;;;;5.65;2.30;;;;;;;18.66;71.02;100216.13;15654101;28;20056;-45
2023/09/19 00:23:08;;;;;;;6.93;2.40;;;;;;;18.34;72.02;100213.78;15680035;28;20462;-50
2023/09/19 00:30:44;;;;;;;8.45;2.38;;;;;;;18.01;73.02;100204.31;15661628;28;20041;-45
2023/09/19 00:38:20;;;;;;;5.13;2.17;;;;;;;18.47;71.47;100201.53;15679152;28;20045;-45
2023/09/19 00:45:56;;;;;;;6.40;2.20;;;;;;;18.13;72.03;100210.25;15661557;28;20140;-45
2023/09/19 00:53:32;;;;;;;6.40;2.50;;;;;;;18.44;71.38;100215.66;15676096;28;20049;-46
2023/09/19 01:01:07;;;;;;;6.45;2.47;;;;;;;18.39;70.82;100219.19;15659509;28;20505;-45
2023/09/19 01:08:42;;;;;;;4.50;2.30;;;;;;;18.25;71.54;100227.09;15669838;28;20048;-44
2023/09/19 01:16:24;;;;;;;7.45;2.60;;;;;;;18.55;70.36;100222.69;15673989;28;20219;-48
2023/09/19 01:24:17;;;;;;;5.97;2.90;;;;;;;18.51;70.43;100221.59;15677233;28;20432;-49
2023/09/19 01:31:54;;;;;;;5.82;2.60;;;;;;;18.52;70.51;100225.97;15669735;28;20147;-50
2023/09/19 01:39:27;;;;;;;8.05;2.70;;;;;;;18.39;70.81;100230.06;15655952;28;20068;-49
2023/09/19 01:47:10;;;;;;;5.15;2.70;;;;;;;18.35;71.04;100226.25;15655931;28;20139;-48
2023/09/19 01:54:48;;;;;;;;;;;;;;;18.48;70.48;100235.75;15666436;28;20049;-48
2023/09/19 02:02:23;;;;;;;7.80;2.47;;;;;;;18.46;70.32;100246.06;15656543;28;19986;-44
2023/09/19 02:09:56;;;;;;;5.30;2.28;;;;;;;18.16;71.39;100242.31;15655313;28;20083;-46
2023/09/19 02:17:32;;;;;;;4.43;1.90;;;;;;;18.13;71.25;100252.91;15655452;28;20114;-47
2023/09/19 02:25:07;;;;;;;4.82;2.00;;;;;;;18.29;71.04;100258.06;15654283;28;20068;-48
2023/09/19 02:32:42;;;;;;;4.53;2.10;;;;;;;18.10;72.13;100257.00;15654777;28;20102;-45
2023/09/19 02:40:19;;;;;;;4.63;2.40;;;;;;;18.30;70.99;100258.88;15672732;22;20057;-49
2023/09/19 02:47:54;;;;;;;3.30;2.00;;;;;;;18.09;71.69;100283.34;15656391;28;20316;-51
2023/09/19 02:55:28;;;;;;;4.88;2.17;;;;;;;18.20;70.94;100291.47;15674595;28;20037;-49
2023/09/19 03:03:05;;;;;;;6.07;2.20;;;;;;;17.82;73.00;100290.91;15658531;28;20051;-51
2023/09/19 03:10:43;;;;;;;9.68;2.17;;;;;;;17.74;73.72;100302.28;15659923;28;20029;-53
2023/09/19 03:18:18;;;;;;;7.65;2.45;;;;;;;17.42;73.99;100305.97;15674951;28;20394;-54
2023/09/19 03:25:53;;;;;;;7.05;2.15;;;;;;;17.66;73.91;100308.22;15658052;28;20044;-51
2023/09/19 03:33:31;;;;;;;3.67;2.10;;;;;;;17.28;75.28;100316.50;15670095;28;20048;-53
2023/09/19 03:41:06;;;;;;;5.05;2.00;;;;;;;17.15;73.82;100322.41;15655999;28;20029;-52
2023/09/19 03:48:44;;;;;;;2.45;1.80;;;;;;;17.38;73.02;100328.47;15673624;28;20044;-49
2023/09/19 03:56:17;;;;;;;4.47;2.05;;;;;;;17.09;73.52;100334.31;15655510;28;20041;-50
2023/09/19 04:03:53;;;;;;;4.28;1.88;;;;;;;16.66;75.71;100329.94;15673720;28;20037;-50
2023/09/19 04:11:29;;;;;;;2.85;1.80;;;;;;;16.57;76.61;100337.75;15659649;28;20096;-49
2023/09/19 04:19:07;;;;;;;3.47;1.80;;;;;;;16.71;74.50;100338.94;15668583;28;20060;-51
2023/09/19 04:26:41;;;;;;;4.22;2.05;;;;;;;16.95;73.35;100344.00;15684477;28;20040;-51
2023/09/19 04:34:17;;;;;;;5.53;1.70;;;;;;;16.78;72.85;100354.97;15683530;28;20040;-52
2023/09/19 04:41:51;;;;;;;5.82;1.80;;;;;;;16.67;71.78;100359.50;15683842;28;20049;-51
2023/09/19 04:49:26;;;;;;;4.80;1.63;;;;;;;16.77;70.68;100377.75;15683758;28;20073;-49
2023/09/19 04:57:01;;;;;;;2.47;1.30;;;;;;;16.52;71.38;100371.03;15679890;28;20049;-48
2023/09/19 05:04:35;;;;;;;3.20;1.20;;;;;;;16.40;71.50;100385.81;15683451;28;20057;-50
2023/09/19 05:12:10;;;;;;;2.85;1.40;;;;;;;16.12;71.40;100401.25;15682183;28;20079;-51
2023/09/19 05:19:48;;;;;;;4.32;1.70;;;;;;;16.67;68.95;100404.75;15675309;28;20135;-51
2023/09/19 05:27:21;;;;;;;3.97;1.70;;;;;;;16.68;69.22;100418.03;15679472;28;20077;-53
2023/09/19 05:34:56;;;;;;;3.42;1.60;;;;;;;16.99;67.57;100427.25;15681619;28;20048;-53
2023/09/19 05:42:29;;;;;;;5.72;1.52;;;;;;;17.06;66.88;100440.56;15680640;28;20048;-54
2023/09/19 05:50:05;;;;;;;;;;;;;;;17.00;66.69;100447.88;15646013;28;20151;-52
2023/09/19 05:57:42;;;;;;;7.18;2.38;;;;;;;17.23;66.49;100452.09;15679325;28;19920;-56
2023/09/19 06:05:16;;;;;;;6.53;1.88;;;;;;;16.92;66.86;100469.22;15679977;28;20049;-52
2023/09/19 06:12:50;;;;;;;4.75;1.85;;;;;;;17.01;66.36;100478.50;15678659;28;20453;-54
2023/09/19 06:20:25;;;;;;;4.40;1.80;;;;;;;16.83;66.80;100490.56;15660794;28;20140;-53
2023/09/19 06:27:58;;;;;;;6.35;1.92;;;;;;;17.13;65.50;100498.13;15678013;28;20045;-51
2023/09/19 06:35:34;;;;;;;3.72;1.95;;;;;;;17.62;64.62;100481.63;15677697;28;20417;-54
2023/09/19 06:43:08;;;;;;;4.32;1.58;;;;;;;17.57;65.08;100504.13;15677648;28;20041;-52
2023/09/19 06:50:44;;;;;;;6.88;2.05;;;;;;;18.35;63.39;100509.66;15677544;28;20049;-50
2023/09/19 06:58:17;;;;;;;6.22;2.00;;;;;;;18.46;61.67;100515.94;15676710;28;20092;-51
2023/09/19 07:05:52;;;;;;;5.47;1.80;;;;;;;18.90;59.97;100520.94;15676803;28;20065;-52
2023/09/19 07:13:25;;;;;;;5.60;2.17;;;;;;;19.23;57.74;100532.38;15676407;28;20045;-51
2023/09/19 07:21:04;;;;;;;5.25;2.58;;;;;;;18.72;57.93;100540.50;15676041;28;20041;-51
2023/09/19 07:28:39;;;;;;;7.22;2.50;;;;;;;18.06;58.35;100554.66;15661383;28;20056;-51
2023/09/19 07:36:14;;;;;;;5.38;2.20;;;;;;;18.25;58.78;100544.16;15671259;28;20538;-49
2023/09/19 07:43:47;;;;;;;7.22;2.47;;;;;;;18.01;58.51;100555.44;15674148;28;20490;-51
2023/09/19 07:51:22;;;;;;;7.88;2.40;;;;;;;18.96;57.19;100557.13;15684699;28;20052;-53
2023/09/19 07:58:57;;;;;;;6.28;2.30;;;;;;;18.96;56.02;100574.25;15686303;28;20056;-52
2023/09/19 08:06:31;;;;;;;7.05;2.50;;;;;;;18.94;55.71;100583.78;15667075;28;20048;-54
2023/09/19 08:14:05;;;;;;;7.20;2.65;;;;;;;18.85;55.38;100576.16;15684246;28;20051;-54
2023/09/19 08:21:45;;;;;;;6.25;2.70;;;;;;;18.78;55.90;100580.22;15682334;28;20463;-52
2023/09/19 08:29:18;;;;;;;9.00;2.50;;;;;;;17.68;56.28;100593.78;15675170;28;20067;-48
2023/09/19 08:36:56;;;;;;;6.28;2.55;;;;;;;18.47;55.36;100560.25;15676502;22;20417;-51
2023/09/19 08:44:30;;;;;;;5.60;2.55;;;;;;;19.21;52.10;100592.53;15621547;28;20049;-48
2023/09/19 08:52:11;;;;;;;9.48;2.83;;;;;;;19.47;51.87;100608.84;15616412;28;20498;-49
2023/09/19 08:59:45;;;;;;;8.70;2.30;;;;;;;19.30;52.77;100618.09;15616245;28;20141;-52
2023/09/19 09:07:21;;;;;;;6.45;2.35;;;;;;;19.80;50.46;100612.94;15584065;28;20564;-49
2023/09/19 09:14:54;;;;;;;5.63;2.20;;;;;;;20.12;49.24;100623.50;15619292;28;20049;-48
2023/09/19 09:22:29;;;;;;;7.35;2.20;;;;;;;20.26;47.19;100602.75;15618396;28;20061;-51
2023/09/19 09:30:03;;;;;;;5.93;2.50;;;;;;;21.02;45.67;100623.41;15618029;28;20050;-50
2023/09/19 09:37:38;;;;;;;6.63;2.25;;;;;;;19.81;48.26;100631.72;15618304;28;20060;-51
2023/09/19 09:45:17;;;;;;;8.02;2.47;;;;;;;19.54;47.68;100623.84;15617409;28;20455;-48
2023/09/19 09:52:51;;;;;;;9.77;2.83;;;;;;;18.85;48.32;100632.44;15599906;28;20483;-48
2023/09/19 10:00:42;;;;;;;5.45;2.30;;;;;;;19.35;47.42;100639.91;15616108;28;20050;-48
2023/09/19 10:08:19;;;;;;;5.47;2.10;;;;;;;19.49;47.12;100642.06;15617751;28;20129;-48
2023/09/19 10:15:54;;;;;;;6.30;2.30;;;;;;;20.61;44.33;100639.16;15615784;28;20391;-47
2023/09/19 10:23:34;;;;;;;6.43;2.40;;;;;;;22.43;39.37;100632.56;15599489;28;20049;-51
2023/09/19 10:31:09;;;;;;;8.38;2.50;;;;;;;21.76;39.02;100629.69;15616578;28;20042;-48
2023/09/19 10:38:45;;;;;;;7.35;2.47;;;;;;;22.87;38.29;100626.78;15615602;28;20049;-48
2023/09/19 10:46:19;;;;;;;8.77;2.50;;;;;;;22.13;37.99;100623.59;15590838;28;20091;-48
2023/09/19 10:53:56;;;;;;;7.55;2.33;;;;;;;21.70;38.75;100628.09;15615157;28;20046;-49
2023/09/19 11:01:44;;;;;;;9.63;2.50;;;;;;;21.60;39.89;100630.94;15615081;28;20046;-50
2023/09/19 11:09:22;;;;;;;7.97;2.30;;;;;;;22.00;38.94;100634.38;15615571;28;20111;-48
2023/09/19 11:17:46;;;;;;;6.82;2.05;;;;;;;21.37;39.82;100651.59;15614316;28;20037;-47
2023/09/19 11:25:47;;;;;;;5.97;1.90;;;;;;;20.32;41.10;100642.50;15622905;28;20487;-47
2023/09/19 11:33:23;;;;;;;8.75;2.03;;;;;;;20.88;40.53;100636.84;15617865;28;20136;-47
2023/09/19 11:41:29;;;;;;;11.75;2.08;;;;;;;21.63;39.25;100641.25;15624190;28;20068;-51
2023/09/19 11:49:10;;;;;;;5.55;1.70;;;;;;;21.08;39.37;100646.03;15625581;28;20065;-47
2023/09/19 11:56:45;;;;;;;4.18;1.80;;;;;;;21.03;39.67;100635.13;15606802;28;20037;-47
2023/09/19 12:04:24;;;;;;;6.03;1.88;;;;;;;21.59;38.63;100643.78;15624878;28;20045;-48
2023/09/19 12:11:58;;;;;;;7.13;1.60;;;;;;;22.30;37.93;100642.28;15606656;28;20046;-48
2023/09/19 12:19:34;;;;;;;8.82;2.30;;;;;;;21.97;38.15;100648.63;15623102;28;20425;-49
2023/09/19 12:27:09;;;;;;;6.13;2.00;;;;;;;21.48;37.17;100635.94;15622789;28;20505;-47
2023/09/19 12:34:52;;;;;;;6.38;1.90;;;;;;;21.53;39.33;100649.56;15622701;28;20128;-46
2023/09/19 12:42:29;;;;;;;5.75;1.80;;;;;;;21.94;37.36;100644.53;15616586;28;20049;-45
2023/09/19 12:50:16;;;;;;;6.03;1.70;;;;;;;22.42;36.66;100626.25;15604762;28;20061;-45
2023/09/19 12:58:15;;;;;;;3.53;1.40;;;;;;;21.78;38.37;100638.41;15621696;28;20368;-47
2023/09/19 13:05:50;;;;;;;4.70;1.40;;;;;;;21.11;39.06;100649.00;15621709;28;20487;-46
2023/09/19 13:13:27;;;;;;;5.85;1.30;;;;;;;21.43;39.00;100644.97;15620026;28;20438;-46
2023/09/19 13:21:10;;;;;;;6.68;1.70;;;;;;;20.70;39.95;100634.75;15619149;28;20052;-49
2023/09/19 13:28:44;;;;;;;4.53;1.50;;;;;;;20.63;39.24;100629.63;15598454;28;20517;-47
2023/09/19 13:36:18;;;;;;;7.80;1.83;;;;;;;20.98;39.25;100632.44;15611138;28;20443;-46
2023/09/19 13:43:52;;;;;;;7.63;1.50;;;;;;;20.76;40.01;100638.31;15601210;28;20111;-49
2023/09/19 13:51:29;;;;;;;3.30;1.33;;;;;;;20.84;40.15;100594.88;15620280;28;20045;-52
2023/09/19 13:59:02;;;;;;;5.22;1.40;;;;;;;21.49;40.18;100622.00;15601934;28;20151;-45
2023/09/19 14:06:38;;;;;;;4.18;1.58;;;;;;;21.02;39.99;100623.41;15617587;28;20100;-46
2023/09/19 14:14:11;;;;;;;3.55;1.70;;;;;;;21.18;40.50;100617.84;15617143;28;20069;-46
2023/09/19 14:21:46;;;;;;;5.30;1.92;;;;;;;20.96;38.12;100612.81;15598160;28;20049;-49
2023/09/19 14:29:19;;;;;;;5.93;1.73;;;;;;;20.75;38.79;100606.63;15607404;28;20060;-46
2023/09/19 14:36:54;;;;;;;4.10;1.70;;;;;;;20.73;38.56;100619.75;15638614;23;20086;-45
2023/09/19 14:44:28;;;;;;;7.18;2.17;;;;;;;20.85;38.81;100625.69;15696685;28;20048;-44
2023/09/19 14:52:03;;;;;;;8.65;1.83;;;;;;;20.54;38.90;100614.94;15784903;28;20036;-48
2023/09/19 14:59:37;;;;;;;6.43;1.90;;;;;;;20.68;39.90;100609.69;15800102;28;20056;-47
2023/09/19 15:07:12;;;;;;;5.72;1.77;;;;;;;20.76;40.01;100600.91;15793356;28;20048;-48
2023/09/19 15:14:46;;;;;;;6.00;1.60;;;;;;;21.09;40.57;100602.06;15794998;28;20040;-47
2023/09/19 15:22:21;;;;;;;7.00;1.95;;;;;;;21.27;40.88;100600.59;15782321;28;20498;-48
2023/09/19 15:29:54;;;;;;;8.00;2.00;;;;;;;20.82;40.73;100593.53;15792063;28;20044;-49
2023/09/19 15:37:29;;;;;;;4.35;1.70;;;;;;;21.14;40.63;100598.50;15800719;28;20040;-48
2023/09/19 15:45:04;;;;;;;9.90;2.30;;;;;;;20.66;41.00;100595.53;15789944;28;20113;-46
2023/09/19 15:52:39;;;;;;;5.43;2.05;;;;;;;21.46;40.43;100599.91;15800112;28;20049;-50
2023/09/19 16:00:17;;;;;;;6.28;2.15;;;;;;;20.81;41.22;100603.63;15800489;28;20044;-50
2023/09/19 16:07:51;;;;;;;7.85;2.30;;;;;;;20.63;39.95;100599.63;15785163;28;20038;-52
2023/09/19 16:15:25;;;;;;;5.68;2.20;;;;;;;20.32;40.54;100609.00;15811872;28;20530;-51
2023/09/19 16:23:00;;;;;;;9.95;2.40;;;;;;;20.67;40.82;100610.78;15785849;28;20049;-48
2023/09/19 16:30:33;;;;;;;7.53;2.10;;;;;;;20.38;41.35;100614.16;15809898;28;20056;-49
2023/09/19 16:38:08;;;;;;;5.60;2.28;;;;;;;20.21;42.35;100621.03;15809407;28;20079;-48
2023/09/19 16:45:41;;;;;;;4.60;2.10;;;;;;;19.62;42.03;100620.56;15797829;28;20052;-50
2023/09/19 16:53:16;;;;;;;7.88;2.47;;;;;;;20.23;40.94;100614.19;15808580;28;20043;-50
2023/09/19 17:00:49;;;;;;;6.03;2.33;;;;;;;19.52;41.68;100611.56;15790565;28;20059;-46
2023/09/19 17:08:24;;;;;;;7.55;2.50;;;;;;;19.85;42.16;100616.47;15808131;28;20088;-47
2023/09/19 17:16:02;;;;;;;8.38;3.35;;;;;;;19.84;41.11;100594.97;15807335;28;20083;-49
2023/09/19 17:23:38;;;;;;;6.68;2.45;;;;;;;19.95;41.99;100607.47;15763743;28;20542;-54
2023/09/19 17:31:12;;;;;;;6.03;2.30;;;;;;;19.83;41.75;100613.22;15806935;28;20036;-50
2023/09/19 17:38:48;;;;;;;8.80;2.80;;;;;;;19.34;42.66;100629.25;15807213;28;20047;-47
2023/09/19 17:46:24;;;;;;;5.50;2.35;;;;;;;19.52;42.78;100644.25;15730040;28;20049;-47
2023/09/19 17:54:02;;;;;;;6.93;2.60;;;;;;;19.44;42.64;100644.78;15701193;28;20116;-45
2023/09/19 18:01:36;;;;;;;9.60;2.30;;;;;;;19.41;42.28;100645.34;15732683;28;20045;-46
2023/09/19 18:09:14;;;;;;;7.22;2.00;;;;;;;19.10;43.37;100656.97;15777028;28;20044;-49
2023/09/19 18:16:47;;;;;;;7.05;2.80;;;;;;;19.14;43.36;100659.19;15695603;28;20064;-46
2023/09/19 18:24:22;;;;;;;9.98;2.42;;;;;;;18.90;43.90;100664.28;15688844;28;20040;-49
2023/09/19 18:31:55;;;;;;;10.63;2.65;;;;;;;18.50;44.94;100674.69;15718511;28;20067;-50
2023/09/19 18:39:30;;;;;;;11.18;2.63;;;;;;;18.22;46.01;100686.75;15723904;28;20044;-51
2023/09/19 18:47:04;;;;;;;6.88;2.30;;;;;;;18.21;45.72;100674.25;15716655;28;20057;-48
2023/09/19 18:54:38;;;;;;;6.45;2.33;;;;;;;18.44;45.63;100680.38;15715941;28;20048;-49
2023/09/19 19:02:12;;;;;;;7.80;2.20;;;;;;;18.46;45.56;100680.91;15721275;28;20036;-51
2023/09/19 19:09:46;;;;;;;7.60;2.40;;;;;;;18.13;46.51;100691.03;15734290;28;20094;-52
2023/09/19 19:17:21;;;;;;;6.45;2.35;;;;;;;18.14;46.08;100692.72;15714418;28;20044;-52
2023/09/19 19:24:56;;;;;;;6.70;2.20;;;;;;;18.31;46.08;100693.34;15710521;28;20056;-48
2023/09/19 19:32:31;;;;;;;5.97;2.25;;;;;;;18.39;46.52;100699.38;15727200;28;20276;-49
2023/09/19 19:40:08;;;;;;;5.85;2.15;;;;;;;18.24;47.19;100687.34;15737007;28;20105;-49
2023/09/19 19:47:42;;;;;;;6.22;1.83;;;;;;;17.75;47.85;100697.56;15732498;28;20048;-49
2023/09/19 19:55:16;;;;;;;;;;;;;;;17.65;48.18;100692.81;15746009;28;20036;-52
2023/09/19 20:02:49;;;;;;;7.15;2.08;;;;;;;17.89;48.15;100696.03;15710900;28;19924;-48
2023/09/19 20:10:25;;;;;;;9.27;2.50;;;;;;;17.98;47.95;100696.38;15724360;28;20107;-49
2023/09/19 20:17:59;;;;;;;5.60;2.40;;;;;;;18.10;47.42;100694.31;15722188;28;20075;-47
2023/09/19 20:25:37;;;;;;;7.00;2.10;;;;;;;18.16;47.42;100690.53;15697393;28;20033;-48
2023/09/19 20:33:12;;;;;;;9.05;2.72;;;;;;;18.14;47.71;100684.56;15722401;28;20049;-52
2023/09/19 20:40:46;;;;;;;8.90;2.70;;;;;;;18.07;47.64;100686.66;15699460;23;20053;-46
2023/09/19 20:48:20;;;;;;;5.57;2.20;;;;;;;18.03;47.74;100686.38;15664643;28;20641;-51
2023/09/19 20:56:00;;;;;;;5.72;2.33;;;;;;;18.09;47.72;100687.22;15680941;28;20497;-45
2023/09/19 21:03:33;;;;;;;7.40;2.40;;;;;;;18.01;47.20;100661.38;15682683;28;20049;-48
2023/09/19 21:11:15;;;;;;;8.98;2.53;;;;;;;17.82;48.05;100671.03;15683815;28;20531;-47
2023/09/19 21:18:49;;;;;;;9.47;3.67;;;;;;;17.71;48.07;100678.22;15681722;28;20067;-47
2023/09/19 21:26:26;;;;;;;9.70;3.05;;;;;;;17.40;49.44;100681.75;15664821;28;20045;-47
2023/09/19 21:34:02;;;;;;;8.23;2.85;;;;;;;17.57;48.29;100672.41;15665011;28;20072;-47
2023/09/19 21:41:37;;;;;;;9.18;2.60;;;;;;;17.40;48.49;100671.72;15681905;28;20048;-46
2023/09/19 21:49:12;;;;;;;7.00;2.47;;;;;;;17.73;48.26;100673.38;15681175;28;20075;-46
2023/09/19 21:56:48;;;;;;;7.43;2.22;;;;;;;17.28;49.12;100665.63;15681001;28;20124;-46
2023/09/19 22:04:21;;;;;;;5.90;2.05;;;;;;;17.50;48.95;100665.56;15679182;28;20147;-44
2023/09/19 22:12:13;;;;;;;8.80;2.15;;;;;;;17.40;49.16;100660.88;15664823;28;20501;-47
2023/09/19 22:20:18;;;;;;;7.30;2.45;;;;;;;16.97;50.26;100661.75;15679875;28;20049;-46
2023/09/19 22:27:52;;;;;;;6.75;2.42;;;;;;;17.30;49.92;100655.34;15661314;28;20041;-45
2023/09/19 22:35:29;;;;;;;5.22;2.10;;;;;;;16.46;52.15;100655.69;15678588;28;20500;-49
2023/09/19 22:43:06;;;;;;;8.43;2.63;;;;;;;16.72;51.17;100652.28;15660608;28;20517;-46
2023/09/19 22:50:44;;;;;;;6.07;2.15;;;;;;;16.12;53.23;100658.50;15678474;28;20045;-49
2023/09/19 22:58:18;;;;;;;9.30;2.08;;;;;;;16.17;53.15;100655.84;15677196;28;20052;-45
2023/09/19 23:05:52;;;;;;;9.80;2.63;;;;;;;16.33;52.48;100657.72;15677220;28;20076;-45
2023/09/19 23:13:28;;;;;;;6.97;2.15;;;;;;;16.62;51.67;100640.47;15676971;28;20102;-46
2023/09/19 23:21:16;;;;;;;7.68;2.28;;;;;;;16.58;51.88;100653.69;15676343;28;20083;-45
2023/09/19 23:28:51;;;;;;;8.27;2.22;;;;;;;16.32;52.57;100650.66;15676754;28;20452;-45
2023/09/19 23:36:26;;;;;;;7.28;2.10;;;;;;;16.67;51.89;100649.47;15669261;28;20048;-45
2023/09/19 23:44:02;;;;;;;7.13;2.17;;;;;;;16.10;52.90;100649.00;15676480;28;20128;-45
2023/09/19 23:51:37;;;;;;;7.97;2.40;;;;;;;16.02;53.43;100631.28;15675999;28;20719;-46
2023/09/19 23:59:14;;;;;;;10.10;2.88;;;;;;;15.88;53.96;100652.47;15675542;28;20041;-46
